createdAt,value
2023-01-25T00:01:22.905Z,82.44
2023-01-25T00:04:03.255Z,82.60
2023-01-25T00:06:36.267Z,82.50
2023-01-25T00:09:03.584Z,82.63
2023-01-25T00:11:37.288Z,82.72
2023-01-25T00:14:12.226Z,82.55
2023-01-25T00:16:46.465Z,82.76
2023-01-25T00:19:19.221Z,82.85
2023-01-25T00:21:46.382Z,82.81
2023-01-25T00:24:21.330Z,82.78
2023-01-25T00:26:48.155Z,82.90
2023-01-25T00:29:21.224Z,82.59
2023-01-25T00:32:06.097Z,82.77
2023-01-25T00:34:51.275Z,83.22
2023-01-25T00:37:35.308Z,83.00
2023-01-25T00:40:08.313Z,82.72
2023-01-25T00:42:41.297Z,82.93
2023-01-25T00:45:17.291Z,83.00
2023-01-25T00:47:43.917Z,82.96
2023-01-25T00:50:11.281Z,83.20
2023-01-25T00:52:44.265Z,83.03
2023-01-25T00:55:11.171Z,83.00
2023-01-25T00:57:44.279Z,83.21
2023-01-25T01:00:11.707Z,83.07
2023-01-25T01:02:45.251Z,82.89
2023-01-25T01:05:18.747Z,82.90
2023-01-25T01:07:52.332Z,82.93
2023-01-25T01:10:19.177Z,82.79
2023-01-25T01:12:52.232Z,82.95
2023-01-25T01:15:18.883Z,83.17
2023-01-25T01:17:52.253Z,83.02
2023-01-25T01:20:21.687Z,83.32
2023-01-25T01:22:55.364Z,83.23
2023-01-25T01:25:28.362Z,83.20
2023-01-25T01:27:55.231Z,83.10
2023-01-25T01:30:28.272Z,83.16
2023-01-25T01:33:01.411Z,83.26
2023-01-25T01:35:29.859Z,83.18
2023-01-25T01:37:56.636Z,83.07
2023-01-25T01:40:31.363Z,83.17
2023-01-25T01:43:03.796Z,83.04
2023-01-25T01:45:56.380Z,83.06
2023-01-25T01:48:31.178Z,83.44
2023-01-25T01:51:10.349Z,83.25
2023-01-25T01:53:38.970Z,83.24
2023-01-25T01:56:17.383Z,83.20
2023-01-25T01:58:46.376Z,83.00
2023-01-25T02:01:19.363Z,83.17
2023-01-25T02:04:17.279Z,83.15
2023-01-25T02:06:58.304Z,83.07
2023-01-25T02:09:35.309Z,83.09
2023-01-25T02:12:09.344Z,83.06
2023-01-25T02:14:40.528Z,83.32
2023-01-25T02:17:14.271Z,83.46
2023-01-25T02:19:54.304Z,83.38
2023-01-25T02:22:37.323Z,83.43
2023-01-25T02:25:19.321Z,83.41
2023-01-25T02:28:00.315Z,83.16
2023-01-25T02:30:27.245Z,83.29
2023-01-25T02:32:53.989Z,83.25
2023-01-25T02:35:43.295Z,83.33
2023-01-25T02:38:13.319Z,83.52
2023-01-25T02:41:02.249Z,83.57
2023-01-25T02:43:39.324Z,83.25
2023-01-25T02:46:25.361Z,83.37
2023-01-25T02:48:52.371Z,83.15
2023-01-25T02:51:33.336Z,83.31
2023-01-25T02:54:01.398Z,83.50
2023-01-25T02:56:36.326Z,83.25
2023-01-25T02:59:05.899Z,83.62
2023-01-25T03:01:40.376Z,83.28
2023-01-25T03:04:13.705Z,83.38
2023-01-25T03:06:47.349Z,83.20
2023-01-25T03:09:13.971Z,83.45
2023-01-25T03:11:47.316Z,83.36
2023-01-25T03:14:20.290Z,83.24
2023-01-25T03:16:53.304Z,83.50
2023-01-25T03:19:19.917Z,83.29
2023-01-25T03:21:53.280Z,83.34
2023-01-25T03:24:26.287Z,83.08
2023-01-25T03:27:11.036Z,83.19
2023-01-25T03:29:45.281Z,82.99
2023-01-25T03:32:25.317Z,83.33
2023-01-25T03:34:58.413Z,83.39
2023-01-25T03:37:30.124Z,83.42
2023-01-25T03:40:04.349Z,83.45
2023-01-25T03:42:31.089Z,83.33
2023-01-25T03:45:04.362Z,83.29
2023-01-25T03:47:31.317Z,83.13
2023-01-25T03:50:04.411Z,83.37
2023-01-25T03:52:38.306Z,83.59
2023-01-25T03:55:12.350Z,83.54
2023-01-25T03:57:39.164Z,83.48
2023-01-25T04:00:13.323Z,83.69
2023-01-25T16:53:36.827Z,83.92
2023-01-25T16:56:03.548Z,84.33
2023-01-25T16:58:36.815Z,84.76
2023-01-25T17:01:09.128Z,84.88
2023-01-25T17:03:42.727Z,85.23
2023-01-25T17:06:25.799Z,85.96
2023-01-25T17:08:54.955Z,85.83
2023-01-25T17:11:29.784Z,85.93
2023-01-25T17:13:59.517Z,85.71
2023-01-25T17:16:29.142Z,85.89
2023-01-25T17:19:04.826Z,85.98
2023-01-25T17:21:32.984Z,85.78
2023-01-25T17:24:07.857Z,86.23
2023-01-25T17:26:34.998Z,86.23
2023-01-25T17:29:09.801Z,86.53
2023-01-25T17:31:36.722Z,86.33
2023-01-25T17:34:08.297Z,86.28
2023-01-25T17:36:41.763Z,86.39
2023-01-25T17:39:14.734Z,86.23
2023-01-25T17:41:46.309Z,86.43
2023-01-25T17:44:20.762Z,86.30
2023-01-25T17:46:48.500Z,85.98
2023-01-25T17:49:25.753Z,86.39
2023-01-25T17:51:58.846Z,86.12
2023-01-25T17:54:32.301Z,86.19
2023-01-25T17:57:05.791Z,86.08
2023-01-25T17:59:38.870Z,86.23
2023-01-25T18:02:06.645Z,86.13
2023-01-25T18:04:40.809Z,86.37
2023-01-25T18:07:07.418Z,86.33
2023-01-25T18:09:35.940Z,86.26
2023-01-25T18:12:08.870Z,86.35
2023-01-25T18:14:35.555Z,86.46
2023-01-25T18:17:09.949Z,86.65
2023-01-25T18:19:36.929Z,86.46
2023-01-25T18:22:10.783Z,86.70
2023-01-25T18:24:37.716Z,86.92
2023-01-25T18:27:07.860Z,86.95
2023-01-25T18:30:01.831Z,87.01
2023-01-25T18:32:30.652Z,87.13
2023-01-25T18:35:03.798Z,86.88
2023-01-25T18:37:35.917Z,86.85
2023-01-25T18:40:08.829Z,86.88
2023-01-25T18:42:35.462Z,87.15
2023-01-25T18:45:09.160Z,86.99
2023-01-25T18:47:36.142Z,86.89
2023-01-25T18:50:09.858Z,86.88
2023-01-25T18:52:42.853Z,87.07
2023-01-25T18:55:15.805Z,86.93
2023-01-25T18:57:55.838Z,86.90
2023-01-25T19:00:28.860Z,87.02
2023-01-25T19:02:55.587Z,87.07
2023-01-25T19:05:28.814Z,87.03
2023-01-25T19:08:01.784Z,87.25
2023-01-25T19:10:34.770Z,87.16
2023-01-25T19:13:07.817Z,87.39
2023-01-25T19:15:34.536Z,87.50
2023-01-25T19:18:07.921Z,87.09
2023-01-25T19:20:40.833Z,87.47
2023-01-25T19:23:14.852Z,87.20
2023-01-25T19:25:41.527Z,87.50
2023-01-25T19:28:14.816Z,87.43
2023-01-25T19:30:41.493Z,87.68
2023-01-25T19:33:14.870Z,87.59
2023-01-25T19:35:47.827Z,87.45
2023-01-25T19:38:20.851Z,87.52
2023-01-25T19:40:53.822Z,87.21
2023-01-25T19:43:20.632Z,87.38
2023-01-25T19:45:53.834Z,87.45
2023-01-25T19:48:20.678Z,87.29
2023-01-25T19:50:53.845Z,87.46
2023-01-25T19:53:40.855Z,87.82
2023-01-25T19:56:16.191Z,87.75
2023-01-25T19:58:48.063Z,87.85
2023-01-25T20:01:29.301Z,87.96
2023-01-25T20:04:07.859Z,88.13
2023-01-25T20:06:41.819Z,88.15
2023-01-25T20:09:11.353Z,88.04
2023-01-25T20:11:44.866Z,88.25
2023-01-25T20:14:20.842Z,88.09
2023-01-25T20:16:58.844Z,88.17
2023-01-25T20:19:25.668Z,88.44
2023-01-25T20:21:52.567Z,88.79
2023-01-25T20:24:32.876Z,88.67
2023-01-25T20:27:05.810Z,89.03
2023-01-25T20:29:32.508Z,89.36
2023-01-25T20:32:05.973Z,89.13
2023-01-25T20:34:38.875Z,89.50
2023-01-25T20:37:05.656Z,89.54
2023-01-25T20:39:38.831Z,89.46
2023-01-25T20:42:05.572Z,89.74
2023-01-25T20:44:38.815Z,89.61
2023-01-25T20:47:05.588Z,89.71
2023-01-25T20:49:34.620Z,89.73
2023-01-25T20:52:07.895Z,89.93
2023-01-25T20:54:44.034Z,90.04
2023-01-25T20:57:16.825Z,90.19
2023-01-25T20:59:49.840Z,90.05
2023-01-25T21:02:22.923Z,90.33
2023-01-25T21:04:49.603Z,90.32
2023-01-25T21:07:22.848Z,90.50
2023-01-25T21:09:49.580Z,90.44
2023-01-25T21:12:22.842Z,90.45
2023-01-25T21:14:50.207Z,90.74
2023-01-25T21:17:22.860Z,90.69
2023-01-25T21:19:49.417Z,90.63
2023-01-25T21:22:22.911Z,90.74
2023-01-25T21:24:55.882Z,90.46
2023-01-25T21:27:29.835Z,90.49
2023-01-25T21:29:57.333Z,90.43
2023-01-25T21:32:30.905Z,90.76
2023-01-25T21:35:03.939Z,91.12
2023-01-25T21:37:30.676Z,90.97
2023-01-25T21:40:03.964Z,91.16
2023-01-25T21:42:32.402Z,91.19
2023-01-25T21:45:24.913Z,91.04
2023-01-25T21:47:51.615Z,91.01
2023-01-25T21:50:43.808Z,90.95
2023-01-25T21:53:17.269Z,91.35
2023-01-25T21:56:02.019Z,91.02
2023-01-25T21:58:28.647Z,91.09
2023-01-25T22:01:13.290Z,91.10
2023-01-25T22:03:40.068Z,91.14
2023-01-25T22:06:13.853Z,91.08
2023-01-25T22:08:40.505Z,91.29
2023-01-25T22:11:14.919Z,91.08
2023-01-25T22:13:48.019Z,91.42
2023-01-25T22:16:15.182Z,91.14
2023-01-25T22:18:49.902Z,91.27
2023-01-25T22:21:22.099Z,91.29
2023-01-25T22:23:55.982Z,91.26
2023-01-25T22:26:30.926Z,91.14
2023-01-25T22:29:05.836Z,91.25
2023-01-25T22:31:32.870Z,91.21
2023-01-25T22:34:07.021Z,91.24
2023-01-25T22:36:34.055Z,91.64
2023-01-25T22:39:00.883Z,91.48
2023-01-25T22:41:39.915Z,91.50
2023-01-25T22:44:12.878Z,91.58
2023-01-25T22:46:45.898Z,91.78
2023-01-25T22:49:18.854Z,91.52
2023-01-25T22:51:51.869Z,91.63
2023-01-25T22:54:31.892Z,91.69
2023-01-25T22:57:05.930Z,91.73
2023-01-25T22:59:32.647Z,91.92
2023-01-25T23:02:05.857Z,91.52
2023-01-25T23:04:38.865Z,91.86
2023-01-25T23:07:19.160Z,91.65
2023-01-25T23:09:48.494Z,92.02
2023-01-25T23:12:22.026Z,91.87
2023-01-25T23:14:51.783Z,91.82
2023-01-25T23:17:48.829Z,91.73
2023-01-25T23:20:15.531Z,92.23
2023-01-25T23:22:48.972Z,91.76
2023-01-25T23:25:15.925Z,91.94
2023-01-25T23:27:48.955Z,92.28
2023-01-25T23:30:16.128Z,92.20
2023-01-25T23:32:52.891Z,92.39
2023-01-25T23:35:26.908Z,92.49
2023-01-25T23:37:59.924Z,92.29
2023-01-25T23:40:32.865Z,92.31
2023-01-25T23:42:59.439Z,92.32
2023-01-25T23:45:32.937Z,92.37
2023-01-25T23:47:59.542Z,92.51
2023-01-25T23:50:32.885Z,92.25
2023-01-25T23:53:19.919Z,92.49
2023-01-25T23:56:09.923Z,92.68
2023-01-25T23:58:38.381Z,92.48
